createdAt,value
2023-03-31T00:00:44.402Z,68.27
2023-03-31T00:01:44.480Z,68.51
2023-03-31T00:02:44.682Z,67.70
2023-03-31T00:03:45.161Z,68.05
2023-03-31T00:04:44.694Z,67.89
2023-03-31T00:05:44.747Z,67.85
2023-03-31T00:06:44.822Z,67.68
2023-03-31T00:07:44.911Z,68.03
2023-03-31T00:08:44.994Z,68.32
2023-03-31T00:09:45.075Z,68.37
2023-03-31T00:10:45.140Z,68.06
2023-03-31T00:11:45.227Z,67.53
2023-03-31T00:12:45.343Z,67.18
2023-03-31T00:13:45.426Z,68.73
2023-03-31T00:14:45.484Z,68.88
2023-03-31T00:15:45.570Z,69.72
2023-03-31T00:16:45.797Z,68.52
2023-03-31T00:17:45.845Z,69.07
2023-03-31T00:18:45.906Z,69.89
2023-03-31T00:19:46.051Z,69.61
2023-03-31T00:20:46.192Z,70.05
2023-03-31T00:21:46.336Z,69.49
2023-03-31T00:22:46.473Z,69.33
2023-03-31T00:23:46.586Z,68.72
2023-03-31T00:24:46.724Z,69.62
2023-03-31T00:25:46.858Z,69.01
2023-03-31T00:26:47.006Z,68.55
2023-03-31T00:27:47.128Z,68.22
2023-03-31T00:28:47.232Z,67.93
2023-03-31T00:29:47.343Z,67.13
2023-03-31T00:30:47.463Z,66.76
2023-03-31T00:31:47.572Z,66.46
2023-03-31T00:32:47.700Z,66.37
2023-03-31T00:33:47.682Z,65.97
2023-03-31T00:34:47.776Z,66.11
2023-03-31T00:35:47.872Z,66.22
2023-03-31T00:36:48.043Z,66.84
2023-03-31T00:37:47.992Z,66.55
2023-03-31T00:38:48.088Z,68.28
2023-03-31T00:39:48.277Z,69.38
2023-03-31T00:40:48.339Z,68.13
2023-03-31T00:41:48.467Z,67.34
2023-03-31T00:42:48.603Z,66.98
2023-03-31T00:43:48.721Z,67.34
2023-03-31T00:44:48.815Z,66.72
2023-03-31T00:45:48.926Z,66.85
2023-03-31T00:46:49.014Z,66.39
2023-03-31T00:47:49.164Z,66.29
2023-03-31T00:48:49.258Z,67.03
2023-03-31T00:49:49.371Z,66.85
2023-03-31T00:50:49.514Z,66.96
2023-03-31T00:51:49.741Z,67.53
2023-03-31T00:52:49.771Z,67.38
2023-03-31T00:53:49.919Z,66.86
2023-03-31T00:54:50.052Z,66.80
2023-03-31T00:55:50.142Z,66.22
2023-03-31T00:56:50.257Z,67.37
2023-03-31T00:57:50.316Z,67.29
2023-03-31T00:58:50.392Z,66.50
2023-03-31T00:59:50.454Z,67.03
2023-03-31T01:00:50.542Z,66.81
2023-03-31T01:01:50.668Z,66.37
2023-03-31T01:02:50.725Z,66.39
2023-03-31T01:03:50.874Z,66.43
2023-03-31T01:04:50.933Z,66.81
2023-03-31T01:05:51.028Z,67.01
2023-03-31T01:06:51.153Z,66.97
2023-03-31T01:07:51.260Z,67.11
2023-03-31T01:08:51.359Z,68.45
2023-03-31T01:09:51.521Z,68.58
2023-03-31T01:10:51.653Z,67.38
2023-03-31T01:11:51.790Z,67.77
2023-03-31T01:12:51.907Z,67.69
2023-03-31T01:13:52.028Z,67.04
2023-03-31T01:14:52.137Z,67.37
2023-03-31T01:15:52.227Z,67.78
2023-03-31T01:16:52.434Z,66.85
2023-03-31T01:17:52.526Z,66.25
2023-03-31T01:18:52.505Z,66.40
2023-03-31T01:19:52.591Z,66.75
2023-03-31T01:20:52.667Z,66.54
2023-03-31T01:21:52.767Z,66.22
2023-03-31T01:22:52.919Z,66.99
2023-03-31T01:23:53.031Z,65.98
2023-03-31T01:24:53.147Z,66.68
2023-03-31T01:25:53.268Z,66.68
2023-03-31T01:26:53.357Z,67.00
2023-03-31T01:27:53.481Z,66.67
2023-03-31T01:28:53.600Z,67.51
2023-03-31T01:29:53.723Z,67.58
2023-03-31T01:30:53.866Z,67.11
2023-03-31T01:31:54.018Z,69.19
2023-03-31T01:32:54.164Z,68.75
2023-03-31T01:33:54.258Z,68.83
2023-03-31T01:34:54.402Z,68.89
2023-03-31T01:35:54.583Z,68.73
2023-03-31T01:36:54.675Z,68.62
2023-03-31T01:37:54.805Z,68.21
2023-03-31T01:38:54.915Z,67.41
2023-03-31T01:39:55.069Z,67.06
2023-03-31T01:40:55.209Z,66.57
2023-03-31T01:41:55.322Z,66.23
2023-03-31T01:42:55.446Z,66.13
2023-03-31T01:43:55.547Z,66.47
2023-03-31T01:44:55.675Z,66.10
2023-03-31T01:45:55.803Z,67.22
2023-03-31T01:46:55.866Z,66.25
2023-03-31T01:47:55.998Z,66.21
2023-03-31T01:48:56.051Z,68.11
2023-03-31T01:49:56.140Z,67.25
2023-03-31T01:50:56.236Z,66.65
2023-03-31T01:51:56.346Z,65.84
2023-03-31T01:52:56.419Z,65.51
2023-03-31T01:53:56.496Z,65.49
2023-03-31T01:54:56.591Z,65.04
2023-03-31T01:55:56.862Z,65.20
2023-03-31T01:56:56.846Z,66.41
2023-03-31T01:57:56.930Z,66.60
2023-03-31T01:58:57.027Z,65.89
2023-03-31T01:59:57.147Z,65.71
2023-03-31T02:00:57.417Z,65.99
2023-03-31T02:01:57.360Z,65.40
2023-03-31T02:02:57.464Z,65.34
2023-03-31T02:03:57.553Z,66.35
2023-03-31T02:04:57.565Z,65.82
2023-03-31T02:05:57.633Z,65.84
2023-03-31T02:06:57.709Z,65.63
2023-03-31T02:07:57.848Z,65.29
2023-03-31T02:08:57.976Z,65.16
2023-03-31T02:09:58.066Z,64.85
2023-03-31T02:10:58.191Z,65.08
2023-03-31T02:11:58.302Z,64.83
2023-03-31T02:12:58.346Z,64.99
2023-03-31T02:13:58.415Z,64.46
2023-03-31T02:14:58.479Z,64.63
2023-03-31T02:15:58.573Z,64.50
2023-03-31T02:16:58.760Z,63.94
2023-03-31T02:17:58.785Z,63.80
2023-03-31T02:18:58.830Z,64.13
2023-03-31T02:19:58.974Z,64.14
2023-03-31T02:20:59.091Z,65.69
2023-03-31T02:21:59.254Z,65.02
2023-03-31T02:22:59.326Z,64.75
2023-03-31T02:23:59.430Z,64.43
2023-03-31T02:24:59.532Z,64.10
2023-03-31T02:25:59.607Z,64.02
2023-03-31T02:26:59.692Z,63.75
2023-03-31T02:27:59.763Z,63.40
2023-03-31T02:28:59.829Z,63.36
2023-03-31T02:29:59.888Z,63.38
2023-03-31T02:30:59.943Z,63.18
2023-03-31T02:32:00.140Z,63.26
2023-03-31T02:33:00.150Z,63.10
2023-03-31T02:34:00.157Z,63.58
2023-03-31T02:35:00.221Z,64.24
2023-03-31T02:36:00.348Z,64.34
2023-03-31T02:37:00.368Z,63.63
2023-03-31T02:38:00.461Z,63.58
2023-03-31T02:39:00.538Z,63.33
2023-03-31T02:40:00.627Z,63.18
2023-03-31T02:41:00.699Z,63.09
2023-03-31T02:42:00.775Z,63.06
2023-03-31T02:43:00.839Z,62.97
2023-03-31T02:44:00.902Z,62.79
2023-03-31T02:45:01.064Z,63.76
2023-03-31T02:46:01.184Z,63.60
2023-03-31T02:47:01.201Z,63.45
2023-03-31T02:48:01.383Z,63.22
2023-03-31T02:49:01.413Z,63.05
2023-03-31T02:50:01.516Z,62.80
2023-03-31T02:51:01.616Z,62.88
2023-03-31T02:52:01.710Z,62.74
2023-03-31T02:53:01.824Z,62.82
2023-03-31T02:54:01.917Z,63.22
2023-03-31T02:55:01.988Z,63.75
2023-03-31T02:56:02.072Z,63.51
2023-03-31T02:57:02.154Z,63.88
2023-03-31T02:58:02.229Z,63.80
2023-03-31T02:59:02.309Z,63.73
2023-03-31T03:00:02.383Z,63.68
2023-03-31T03:01:02.473Z,63.56
2023-03-31T03:02:02.542Z,63.47
2023-03-31T03:03:02.713Z,63.50
2023-03-31T03:04:02.641Z,63.44
2023-03-31T03:05:02.689Z,63.45
2023-03-31T03:06:04.676Z,63.30
2023-03-31T03:07:02.994Z,63.10
2023-03-31T03:08:03.049Z,63.06
2023-03-31T03:09:03.118Z,63.11
2023-03-31T03:10:03.197Z,62.88
2023-03-31T03:11:03.271Z,62.28
2023-03-31T03:12:03.333Z,62.10
2023-03-31T03:13:03.417Z,62.09
2023-03-31T03:14:03.498Z,62.12
2023-03-31T03:15:03.565Z,62.24
2023-03-31T03:16:03.867Z,62.15
2023-03-31T03:17:03.772Z,62.23
2023-03-31T03:18:03.817Z,62.13
2023-03-31T03:19:04.016Z,62.07
2023-03-31T03:20:03.928Z,62.08
2023-03-31T03:21:04.010Z,62.06
2023-03-31T03:22:04.073Z,62.15
2023-03-31T03:23:04.841Z,62.28
2023-03-31T03:24:04.186Z,62.38
2023-03-31T03:25:04.255Z,62.54
2023-03-31T03:26:04.441Z,62.43
2023-03-31T03:27:04.398Z,62.61
2023-03-31T03:28:04.460Z,62.75
2023-03-31T03:29:04.516Z,62.33
2023-03-31T03:30:04.586Z,62.54
2023-03-31T03:31:04.680Z,62.63
2023-03-31T03:32:04.695Z,62.52
2023-03-31T03:33:04.765Z,62.34
2023-03-31T03:34:04.827Z,62.05
2023-03-31T03:35:04.932Z,62.17
2023-03-31T03:36:05.149Z,62.17
2023-03-31T03:37:05.077Z,62.22
2023-03-31T03:38:05.110Z,62.23
2023-03-31T03:39:05.186Z,62.21
2023-03-31T03:40:05.268Z,62.17
2023-03-31T03:41:05.343Z,62.11
2023-03-31T03:42:05.417Z,62.07
2023-03-31T03:43:05.486Z,61.92
2023-03-31T03:44:05.646Z,61.94
2023-03-31T03:45:05.664Z,61.76
2023-03-31T03:46:06.109Z,61.82
2023-03-31T03:47:05.799Z,61.82
2023-03-31T03:48:05.885Z,61.66
2023-03-31T03:49:05.936Z,61.64
2023-03-31T03:50:06.053Z,61.41
2023-03-31T03:51:06.128Z,61.62
2023-03-31T03:52:06.220Z,61.62
2023-03-31T03:53:06.285Z,61.59
2023-03-31T03:54:06.371Z,61.69
2023-03-31T03:55:06.423Z,61.85
2023-03-31T03:56:06.780Z,61.91
2023-03-31T03:57:06.600Z,61.94
2023-03-31T03:58:06.646Z,61.86
2023-03-31T03:59:06.709Z,61.85
2023-03-31T04:00:06.774Z,61.85
2023-03-31T04:01:06.842Z,61.82
2023-03-31T04:02:06.922Z,61.75
2023-03-31T04:03:07.038Z,61.88
2023-03-31T04:04:07.054Z,61.95
2023-03-31T04:05:07.169Z,61.83
2023-03-31T04:06:07.360Z,61.96
2023-03-31T04:07:07.286Z,62.20
2023-03-31T04:08:07.357Z,62.19
2023-03-31T04:09:07.436Z,62.26
2023-03-31T04:10:07.505Z,62.16
2023-03-31T04:11:07.580Z,62.22
2023-03-31T04:12:07.688Z,62.31
2023-03-31T04:13:07.765Z,62.20
2023-03-31T04:14:07.843Z,62.24
2023-03-31T04:15:07.923Z,62.31
2023-03-31T04:16:08.138Z,62.30
2023-03-31T04:17:08.120Z,62.26
2023-03-31T04:18:08.295Z,62.34
2023-03-31T04:19:08.328Z,62.24
2023-03-31T04:20:08.410Z,62.40
2023-03-31T04:21:08.497Z,62.39
2023-03-31T04:22:08.585Z,62.27
2023-03-31T04:23:08.681Z,62.55
2023-03-31T04:24:08.775Z,62.54
2023-03-31T04:25:08.868Z,62.45
2023-03-31T04:26:09.066Z,62.97
2023-03-31T04:27:09.084Z,63.04
2023-03-31T04:28:09.204Z,62.77
2023-03-31T04:29:09.325Z,62.42
2023-03-31T04:30:09.425Z,63.04
2023-03-31T04:31:09.563Z,63.08
2023-03-31T04:32:09.741Z,62.98
2023-03-31T04:33:09.816Z,62.99
2023-03-31T04:34:09.864Z,62.99
2023-03-31T04:35:09.959Z,62.94
2023-03-31T04:36:10.219Z,62.90
2023-03-31T04:37:10.142Z,63.41
2023-03-31T04:38:10.222Z,63.43
2023-03-31T04:39:10.392Z,63.52
2023-03-31T04:40:10.486Z,63.31
2023-03-31T04:41:10.557Z,63.20
2023-03-31T04:42:10.655Z,63.11
2023-03-31T04:43:10.750Z,62.99
2023-03-31T04:44:10.848Z,62.81
2023-03-31T04:45:10.936Z,62.52
2023-03-31T04:46:11.097Z,62.14
2023-03-31T04:47:11.131Z,61.89
2023-03-31T04:48:11.230Z,61.89
2023-03-31T04:49:11.332Z,62.25
2023-03-31T04:50:15.311Z,62.24
2023-03-31T04:51:11.491Z,62.31
2023-03-31T04:52:11.561Z,62.31
2023-03-31T04:53:11.618Z,62.32
2023-03-31T04:54:11.694Z,62.41
2023-03-31T04:55:11.771Z,62.27
2023-03-31T04:56:11.831Z,62.00
2023-03-31T04:57:11.912Z,62.15
2023-03-31T04:58:11.966Z,62.19
2023-03-31T04:59:12.043Z,62.14
2023-03-31T05:00:12.101Z,62.30
2023-03-31T05:01:12.171Z,62.49
2023-03-31T05:02:12.307Z,62.48
2023-03-31T05:03:12.419Z,62.66
2023-03-31T05:04:12.382Z,62.51
2023-03-31T05:05:12.461Z,62.89
2023-03-31T05:06:12.523Z,62.66
2023-03-31T05:07:12.593Z,62.66
2023-03-31T05:08:12.665Z,62.80
2023-03-31T05:09:12.741Z,62.62
2023-03-31T05:10:12.817Z,62.63
2023-03-31T05:11:12.869Z,62.43
2023-03-31T05:12:12.943Z,62.78
2023-03-31T05:13:13.014Z,62.93
2023-03-31T05:14:13.097Z,62.74
2023-03-31T05:15:13.209Z,62.66
2023-03-31T05:16:13.309Z,62.69
2023-03-31T05:17:13.388Z,62.74
2023-03-31T05:18:13.480Z,62.67
2023-03-31T05:19:13.635Z,62.71
2023-03-31T05:20:13.811Z,62.71
2023-03-31T05:21:13.898Z,62.69
2023-03-31T05:22:13.992Z,62.63
2023-03-31T05:23:14.092Z,62.50
2023-03-31T05:24:14.168Z,62.58
2023-03-31T05:25:14.255Z,62.35
2023-03-31T05:26:14.872Z,62.31
2023-03-31T05:27:14.470Z,62.33
2023-03-31T05:28:14.502Z,62.39
2023-03-31T05:29:14.601Z,62.49
2023-03-31T05:30:14.685Z,62.54
2023-03-31T05:31:14.792Z,62.63
2023-03-31T05:32:14.837Z,62.47
2023-03-31T05:33:14.904Z,62.40
2023-03-31T05:34:14.986Z,62.51
2023-03-31T05:35:15.049Z,62.16
2023-03-31T05:36:15.150Z,62.29
2023-03-31T05:37:15.191Z,62.22
2023-03-31T05:38:15.269Z,62.27
2023-03-31T05:39:15.334Z,62.03
2023-03-31T05:40:15.401Z,62.06
2023-03-31T05:41:15.483Z,62.12
2023-03-31T05:42:15.552Z,62.01
2023-03-31T05:43:15.630Z,62.10
2023-03-31T05:44:15.703Z,62.06
2023-03-31T05:45:15.952Z,62.09
2023-03-31T05:46:15.915Z,62.17
2023-03-31T05:47:15.945Z,62.10
2023-03-31T05:48:16.017Z,62.26
2023-03-31T05:49:16.089Z,62.15
2023-03-31T05:50:16.158Z,62.09
2023-03-31T05:51:16.226Z,61.98
2023-03-31T05:52:16.302Z,61.98
2023-03-31T05:53:16.386Z,61.85
2023-03-31T05:54:16.467Z,61.94
2023-03-31T05:55:16.515Z,62.00
2023-03-31T05:56:16.611Z,62.10
2023-03-31T05:57:16.706Z,62.07
2023-03-31T05:58:16.770Z,62.06
2023-03-31T05:59:16.860Z,62.13
2023-03-31T06:00:16.935Z,62.21
2023-03-31T06:02:17.150Z,61.99
2023-03-31T06:03:17.170Z,61.89
2023-03-31T06:04:17.302Z,61.66
2023-03-31T06:05:17.331Z,61.33
2023-03-31T06:06:17.391Z,61.53
2023-03-31T06:07:17.470Z,61.41
2023-03-31T06:08:17.542Z,61.42
2023-03-31T06:09:17.648Z,61.60
2023-03-31T06:10:17.676Z,61.28
2023-03-31T06:11:18.295Z,61.10
2023-03-31T06:12:17.790Z,61.22
2023-03-31T06:13:17.879Z,61.35
2023-03-31T06:14:17.931Z,61.70
2023-03-31T06:15:17.994Z,61.47
2023-03-31T06:16:18.065Z,61.46
2023-03-31T06:17:18.880Z,62.08
2023-03-31T06:18:18.387Z,62.09
2023-03-31T06:19:18.229Z,61.96
2023-03-31T06:20:27.313Z,61.79
2023-03-31T06:21:19.344Z,61.85
2023-03-31T06:22:18.407Z,62.38
2023-03-31T06:23:18.481Z,61.92
2023-03-31T06:24:18.525Z,61.92
2023-03-31T06:25:18.605Z,62.12
2023-03-31T06:26:18.690Z,62.36
2023-03-31T06:27:18.877Z,62.55
2023-03-31T06:28:18.804Z,62.54
2023-03-31T06:29:18.865Z,62.99
2023-03-31T06:30:18.940Z,62.64
2023-03-31T06:31:19.107Z,62.39
2023-03-31T06:32:19.071Z,62.16
2023-03-31T06:33:19.160Z,62.13
2023-03-31T06:34:21.331Z,62.46
2023-03-31T06:35:20.378Z,63.91
2023-03-31T06:36:19.689Z,63.26
2023-03-31T06:37:19.677Z,63.38
2023-03-31T06:38:19.799Z,62.98
2023-03-31T06:39:19.923Z,63.35
2023-03-31T06:40:20.043Z,62.88
2023-03-31T06:41:20.151Z,62.58
2023-03-31T06:42:20.259Z,63.06
2023-03-31T06:43:20.370Z,64.01
2023-03-31T06:44:20.453Z,63.47
2023-03-31T06:45:20.585Z,63.00
2023-03-31T06:46:20.676Z,62.64
2023-03-31T06:47:20.721Z,62.36
2023-03-31T06:48:20.734Z,61.48
2023-03-31T06:49:20.788Z,62.28
2023-03-31T06:50:20.839Z,62.34
2023-03-31T06:51:20.921Z,61.75
2023-03-31T06:52:21.072Z,61.75
2023-03-31T06:53:21.051Z,62.72
2023-03-31T06:54:21.126Z,62.72
2023-03-31T06:55:21.202Z,61.30
2023-03-31T06:56:21.288Z,61.94
2023-03-31T06:57:21.436Z,62.22
2023-03-31T06:58:21.493Z,61.76
2023-03-31T06:59:21.560Z,62.09
2023-03-31T07:00:23.299Z,61.87
2023-03-31T07:01:21.852Z,61.73
2023-03-31T07:02:21.866Z,61.69
2023-03-31T07:03:22.097Z,62.25
2023-03-31T07:04:22.002Z,61.95
2023-03-31T07:05:22.056Z,61.87
2023-03-31T07:06:22.121Z,61.55
2023-03-31T07:07:22.172Z,61.61
2023-03-31T07:08:22.236Z,61.41
2023-03-31T07:09:22.320Z,61.51
2023-03-31T07:10:22.364Z,61.14
2023-03-31T07:11:22.421Z,61.05
2023-03-31T07:12:22.523Z,60.95
2023-03-31T07:13:22.595Z,60.84
2023-03-31T07:14:22.696Z,60.80
2023-03-31T07:15:22.811Z,60.44
2023-03-31T07:16:22.954Z,60.46
2023-03-31T07:17:23.052Z,60.38
2023-03-31T07:18:23.152Z,60.40
2023-03-31T07:19:23.272Z,60.14
2023-03-31T07:20:23.376Z,60.16
2023-03-31T07:21:23.479Z,60.03
2023-03-31T07:22:23.598Z,60.17
2023-03-31T07:23:23.707Z,60.07
2023-03-31T07:24:23.768Z,59.76
2023-03-31T07:25:23.847Z,59.84
2023-03-31T07:26:23.917Z,59.77
2023-03-31T07:27:26.066Z,59.90
2023-03-31T07:28:24.087Z,59.82
2023-03-31T07:29:24.156Z,60.44
2023-03-31T07:30:24.252Z,60.18
2023-03-31T07:31:24.385Z,60.12
2023-03-31T07:32:28.473Z,60.02
2023-03-31T07:33:24.528Z,59.97
2023-03-31T07:34:24.566Z,59.81
2023-03-31T07:35:24.706Z,60.10
2023-03-31T07:36:24.731Z,59.98
2023-03-31T07:37:24.740Z,60.04
2023-03-31T07:38:24.804Z,59.98
2023-03-31T07:39:24.854Z,60.18
2023-03-31T07:40:24.979Z,60.14
2023-03-31T07:41:24.949Z,60.13
2023-03-31T07:42:24.996Z,60.27
2023-03-31T07:43:25.063Z,60.12
2023-03-31T07:44:25.124Z,60.10
2023-03-31T07:45:25.154Z,59.84
2023-03-31T07:46:25.264Z,59.55
2023-03-31T07:47:25.294Z,59.31
2023-03-31T07:48:25.507Z,59.41
2023-03-31T07:49:25.472Z,59.36
2023-03-31T07:50:25.612Z,59.55
2023-03-31T07:51:25.686Z,59.69
2023-03-31T07:52:25.807Z,59.41
2023-03-31T07:53:25.913Z,59.24
2023-03-31T07:54:26.022Z,59.49
2023-03-31T07:55:26.818Z,59.30
2023-03-31T07:56:26.209Z,59.29
2023-03-31T07:57:26.370Z,59.33
2023-03-31T07:58:26.401Z,59.14
2023-03-31T07:59:26.496Z,59.20
2023-03-31T08:00:26.594Z,58.90
2023-03-31T08:01:27.357Z,58.89
2023-03-31T08:02:26.923Z,58.87
2023-03-31T08:03:26.853Z,58.83
2023-03-31T08:04:26.992Z,58.83
2023-03-31T08:05:27.062Z,59.32
2023-03-31T08:06:27.158Z,59.30
2023-03-31T08:07:27.386Z,59.40
2023-03-31T08:08:27.335Z,59.66
2023-03-31T08:09:27.461Z,59.43
2023-03-31T08:10:27.603Z,59.73
2023-03-31T08:11:27.724Z,59.59
2023-03-31T08:12:27.802Z,59.58
2023-03-31T08:13:27.885Z,60.47
2023-03-31T08:14:40.050Z,59.75
2023-03-31T08:15:29.038Z,58.94
2023-03-31T08:16:28.134Z,58.44
2023-03-31T08:17:28.184Z,58.47
2023-03-31T08:18:28.194Z,60.31
2023-03-31T08:19:28.253Z,60.36
2023-03-31T08:20:28.324Z,61.40
2023-03-31T08:21:28.369Z,61.31
2023-03-31T08:22:28.419Z,60.89
2023-03-31T08:23:28.463Z,60.77
2023-03-31T08:24:28.530Z,60.59
2023-03-31T08:25:28.640Z,60.44
2023-03-31T08:26:28.736Z,60.55
2023-03-31T08:27:28.858Z,59.78
2023-03-31T08:28:28.928Z,59.64
2023-03-31T08:29:29.018Z,59.05
2023-03-31T08:30:29.109Z,59.49
2023-03-31T08:31:30.162Z,59.24
2023-03-31T08:32:29.242Z,59.13
2023-03-31T08:33:29.203Z,58.78
2023-03-31T08:34:29.420Z,59.06
2023-03-31T08:35:29.267Z,59.68
2023-03-31T08:36:29.322Z,59.59
2023-03-31T08:37:29.443Z,59.29
2023-03-31T08:38:29.424Z,58.53
2023-03-31T08:39:29.549Z,57.18
2023-03-31T08:40:29.501Z,57.09
2023-03-31T08:41:29.538Z,56.17
2023-03-31T08:42:29.601Z,56.28
2023-03-31T08:43:30.658Z,56.27
2023-03-31T08:44:29.637Z,56.54
2023-03-31T08:45:29.725Z,56.59
2023-03-31T08:46:29.773Z,56.47
2023-03-31T08:47:29.762Z,56.62
2023-03-31T08:48:29.782Z,56.39
2023-03-31T08:49:29.788Z,56.66
2023-03-31T08:50:29.792Z,56.69
2023-03-31T08:51:30.445Z,56.09
2023-03-31T08:52:30.407Z,56.11
2023-03-31T08:53:29.975Z,56.41
2023-03-31T08:54:30.016Z,56.53
2023-03-31T08:55:30.140Z,56.28
2023-03-31T08:56:30.227Z,56.26
2023-03-31T08:57:30.239Z,56.48
2023-03-31T08:58:30.318Z,56.80
2023-03-31T08:59:30.443Z,56.62
2023-03-31T09:00:31.564Z,56.37
2023-03-31T09:01:32.545Z,56.64
2023-03-31T09:02:31.795Z,56.64
2023-03-31T09:03:30.677Z,56.49
2023-03-31T09:04:30.658Z,56.05
2023-03-31T09:05:30.677Z,56.28
2023-03-31T09:06:31.431Z,56.22
2023-03-31T09:07:31.428Z,56.04
2023-03-31T09:08:30.768Z,55.91
2023-03-31T09:09:30.834Z,55.62
2023-03-31T09:10:30.820Z,55.37
2023-03-31T09:11:30.884Z,55.57
2023-03-31T09:12:30.853Z,55.23
2023-03-31T09:13:30.930Z,55.02
2023-03-31T09:14:30.880Z,55.15
2023-03-31T09:15:30.916Z,54.56
2023-03-31T09:16:31.997Z,54.70
2023-03-31T09:17:30.976Z,54.48
2023-03-31T09:18:30.967Z,54.75
2023-03-31T09:19:30.993Z,54.68
2023-03-31T09:20:31.050Z,55.67
2023-03-31T09:21:31.094Z,56.72
2023-03-31T09:22:31.144Z,57.30
2023-03-31T09:23:31.199Z,57.44
2023-03-31T09:24:32.772Z,57.05
2023-03-31T09:25:31.335Z,58.25
2023-03-31T09:26:31.429Z,58.14
2023-03-31T09:27:31.562Z,57.88
2023-03-31T09:28:31.672Z,58.18
2023-03-31T09:29:31.786Z,58.22
2023-03-31T09:30:31.853Z,58.21
2023-03-31T09:31:31.994Z,58.84
2023-03-31T09:32:32.257Z,57.98
2023-03-31T09:33:32.847Z,57.73
2023-03-31T09:34:32.286Z,57.82
2023-03-31T09:35:32.435Z,57.83
2023-03-31T09:36:32.512Z,58.88
2023-03-31T09:37:32.636Z,58.89
2023-03-31T09:38:32.728Z,57.93
2023-03-31T09:39:32.813Z,58.91
2023-03-31T09:40:32.905Z,59.03
2023-03-31T09:41:34.218Z,58.71
2023-03-31T09:42:33.047Z,58.99
2023-03-31T09:43:33.110Z,59.76
2023-03-31T09:44:33.145Z,59.48
2023-03-31T09:45:33.212Z,58.11
2023-03-31T09:46:33.277Z,58.39
2023-03-31T09:47:33.361Z,57.85
2023-03-31T09:48:33.327Z,57.73
2023-03-31T09:49:33.403Z,57.91
2023-03-31T09:50:33.485Z,57.59
2023-03-31T09:51:33.565Z,57.67
2023-03-31T09:52:33.649Z,57.11
2023-03-31T09:53:33.700Z,56.99
2023-03-31T09:54:34.437Z,56.99
2023-03-31T09:55:40.229Z,57.35
2023-03-31T09:56:34.876Z,58.18
2023-03-31T09:57:34.378Z,57.32
2023-03-31T09:58:34.893Z,57.60
2023-03-31T09:59:33.926Z,57.67
2023-03-31T10:00:33.930Z,56.54
2023-03-31T10:01:33.978Z,56.04
2023-03-31T10:02:33.990Z,57.11
2023-03-31T10:03:33.998Z,57.07
2023-03-31T10:04:34.061Z,57.22
2023-03-31T10:05:34.992Z,57.11
2023-03-31T10:06:34.006Z,57.33
2023-03-31T10:07:34.028Z,57.54
2023-03-31T10:08:34.042Z,57.80
2023-03-31T10:09:34.049Z,57.38
2023-03-31T10:10:34.049Z,59.17
2023-03-31T10:11:34.066Z,59.74
2023-03-31T10:12:34.081Z,59.25
2023-03-31T10:13:34.084Z,60.50
2023-03-31T10:14:34.155Z,61.95
2023-03-31T10:15:34.237Z,60.53
2023-03-31T10:16:34.932Z,61.17
2023-03-31T10:17:46.943Z,61.38
2023-03-31T10:18:35.397Z,60.55
2023-03-31T10:19:34.390Z,59.05
2023-03-31T10:20:34.422Z,59.41
2023-03-31T10:21:34.390Z,58.08
2023-03-31T10:22:34.410Z,60.75
2023-03-31T10:23:34.425Z,60.23
2023-03-31T10:24:34.456Z,57.28
2023-03-31T10:25:34.482Z,57.18
2023-03-31T10:26:34.493Z,57.52
2023-03-31T10:27:34.522Z,57.61
2023-03-31T10:28:34.607Z,58.41
2023-03-31T10:29:34.683Z,57.37
2023-03-31T10:30:34.765Z,56.29
2023-03-31T10:31:34.869Z,57.35
2023-03-31T10:32:34.955Z,59.74
2023-03-31T10:33:35.140Z,59.49
2023-03-31T10:34:35.113Z,60.59
2023-03-31T10:35:35.216Z,60.85
2023-03-31T10:36:35.278Z,61.50
2023-03-31T10:37:35.313Z,61.75
2023-03-31T10:38:35.360Z,61.67
2023-03-31T10:39:35.411Z,61.30
2023-03-31T10:40:35.568Z,61.60
2023-03-31T10:41:35.482Z,60.22
2023-03-31T10:42:35.577Z,60.17
2023-03-31T10:43:35.800Z,60.67
2023-03-31T10:44:35.692Z,60.78
2023-03-31T10:45:37.843Z,61.63
2023-03-31T10:46:35.774Z,61.66
2023-03-31T10:47:35.784Z,61.81
2023-03-31T10:48:35.771Z,60.72
2023-03-31T10:49:35.790Z,60.45
2023-03-31T10:50:35.815Z,61.55
2023-03-31T10:51:35.942Z,61.02
2023-03-31T10:52:35.841Z,60.96
2023-03-31T10:53:35.897Z,61.40
2023-03-31T10:54:35.895Z,60.83
2023-03-31T10:55:35.935Z,60.46
2023-03-31T10:56:35.943Z,60.48
2023-03-31T10:57:36.012Z,61.68
2023-03-31T10:58:35.960Z,60.63
2023-03-31T10:59:35.982Z,61.01
2023-03-31T11:00:35.998Z,61.41
2023-03-31T11:01:36.035Z,62.59
2023-03-31T11:02:36.176Z,61.39
2023-03-31T11:03:36.129Z,60.24
2023-03-31T11:04:36.051Z,60.52
2023-03-31T11:05:36.062Z,60.18
2023-03-31T11:06:36.083Z,60.12
2023-03-31T11:07:36.103Z,60.43
2023-03-31T11:08:36.122Z,60.89
2023-03-31T11:09:36.128Z,60.75
2023-03-31T11:10:36.144Z,60.35
2023-03-31T11:11:36.177Z,60.40
2023-03-31T11:12:36.176Z,60.40
2023-03-31T11:13:36.240Z,60.46
2023-03-31T11:14:36.199Z,60.51
2023-03-31T11:15:36.268Z,61.05
2023-03-31T11:16:36.399Z,60.23
2023-03-31T11:17:36.267Z,58.93
2023-03-31T11:18:36.313Z,57.76
2023-03-31T11:19:36.289Z,57.94
2023-03-31T11:20:36.319Z,57.90
2023-03-31T11:21:36.442Z,57.08
2023-03-31T11:22:36.347Z,58.43
2023-03-31T11:23:36.370Z,58.41
2023-03-31T11:24:36.376Z,58.35
2023-03-31T11:25:36.408Z,58.94
2023-03-31T11:26:36.437Z,59.12
2023-03-31T11:27:36.438Z,58.96
2023-03-31T11:28:36.450Z,59.88
2023-03-31T11:29:36.469Z,60.02
2023-03-31T11:30:36.477Z,59.44
2023-03-31T11:31:36.530Z,58.88
2023-03-31T11:32:36.530Z,60.64
2023-03-31T11:33:36.564Z,62.36
2023-03-31T11:34:36.535Z,61.30
2023-03-31T11:35:36.567Z,61.10
2023-03-31T11:36:36.564Z,61.08
2023-03-31T11:37:36.572Z,61.31
2023-03-31T11:38:36.589Z,61.80
2023-03-31T11:39:36.620Z,62.36
2023-03-31T11:40:36.706Z,62.81
2023-03-31T11:41:36.782Z,63.39
2023-03-31T11:42:36.853Z,63.30
2023-03-31T11:43:36.910Z,63.22
2023-03-31T11:44:36.989Z,63.26
2023-03-31T11:45:37.066Z,63.89
2023-03-31T11:46:37.228Z,63.41
2023-03-31T11:47:37.233Z,62.49
2023-03-31T11:48:37.268Z,62.43
2023-03-31T11:49:37.321Z,62.19
2023-03-31T11:50:37.400Z,62.05
2023-03-31T11:51:37.469Z,61.74
2023-03-31T11:52:37.521Z,61.75
2023-03-31T11:53:37.593Z,61.93
2023-03-31T11:54:37.671Z,62.21
2023-03-31T11:55:37.719Z,62.35
2023-03-31T11:56:37.803Z,62.54
2023-03-31T11:57:37.851Z,62.86
2023-03-31T11:58:37.921Z,62.54
2023-03-31T11:59:38.000Z,63.11
2023-03-31T12:00:38.063Z,62.54
2023-03-31T12:01:38.150Z,62.70
2023-03-31T12:02:38.236Z,64.04
2023-03-31T12:03:38.434Z,63.55
2023-03-31T12:04:38.571Z,63.51
2023-03-31T12:05:38.779Z,63.79
2023-03-31T12:06:38.925Z,63.89
2023-03-31T12:07:39.012Z,65.72
2023-03-31T12:08:39.093Z,64.90
2023-03-31T12:09:39.187Z,64.44
2023-03-31T12:10:39.262Z,65.32
2023-03-31T12:11:39.370Z,65.34
2023-03-31T12:12:39.412Z,63.73
2023-03-31T12:13:39.443Z,62.38
2023-03-31T12:14:39.494Z,62.70
2023-03-31T12:15:39.624Z,62.59
2023-03-31T12:16:39.674Z,62.29
2023-03-31T12:17:39.735Z,62.67
2023-03-31T12:18:39.771Z,63.38
2023-03-31T12:19:39.860Z,63.58
2023-03-31T12:20:39.937Z,63.98
2023-03-31T12:21:40.033Z,63.79
2023-03-31T12:22:40.109Z,63.69
2023-03-31T12:23:40.182Z,63.20
2023-03-31T12:24:40.274Z,63.38
2023-03-31T12:25:40.357Z,63.39
2023-03-31T12:26:40.465Z,63.52
2023-03-31T12:27:40.541Z,63.41
2023-03-31T12:28:40.629Z,63.15
2023-03-31T12:29:40.726Z,63.36
2023-03-31T12:30:40.774Z,63.58
2023-03-31T12:31:40.878Z,63.73
2023-03-31T12:32:40.939Z,64.45
2023-03-31T12:33:40.960Z,63.92
2023-03-31T12:34:41.015Z,63.72
2023-03-31T12:35:41.081Z,63.85
2023-03-31T12:36:41.136Z,64.20
2023-03-31T12:37:41.184Z,64.05
2023-03-31T12:38:41.241Z,64.19
2023-03-31T12:39:41.277Z,64.29
2023-03-31T12:40:41.334Z,64.12
2023-03-31T12:41:41.402Z,64.86
2023-03-31T12:42:41.450Z,64.68
2023-03-31T12:43:41.492Z,64.30
2023-03-31T12:44:41.540Z,64.36
2023-03-31T12:45:41.579Z,64.23
2023-03-31T12:46:41.659Z,64.51
2023-03-31T12:47:41.687Z,64.13
2023-03-31T12:48:41.695Z,64.15
2023-03-31T12:49:41.753Z,63.93
2023-03-31T12:50:41.794Z,64.03
2023-03-31T12:51:41.855Z,63.90
2023-03-31T12:52:41.898Z,63.51
2023-03-31T12:53:41.932Z,63.39
2023-03-31T12:54:41.984Z,64.56